Time;durP1;ratioP1;P1;durP2;ratioP2;P2;SDS_P1;SDS_P2;PMS_P1;PMS_P2;Temp;Humidity;BMP_temperature;BMP_pressure;BME280_temperature;BME280_humidity;BME280_pressure;Samples;Min_cycle;Max_cycle;Signal;HPM_P1;HPM_P2
2023/07/03 00:02:52;;;;;;;7.63;2.43;;;;;;;14.97;68.15;100236.91;6048589;28;20038;-66
2023/07/03 00:05:47;;;;;;;6.10;2.25;;;;;;;15.02;67.92;100234.50;6037965;28;20064;-66
2023/07/03 00:08:42;;;;;;;4.90;2.37;;;;;;;15.02;67.45;100217.66;6042671;28;20589;-66
2023/07/03 00:11:38;;;;;;;7.13;2.90;;;;;;;15.25;66.14;100229.84;6038820;28;20427;-66
2023/07/03 00:14:33;;;;;;;8.00;2.27;;;;;;;15.16;65.04;100209.63;6050178;28;20037;-66
2023/07/03 00:17:28;;;;;;;10.90;2.87;;;;;;;15.23;65.53;100221.19;6045627;28;20116;-65
2023/07/03 00:20:24;;;;;;;8.70;2.23;;;;;;;15.25;65.99;100235.19;6021395;28;20038;-66
2023/07/03 00:23:19;;;;;;;7.63;2.40;;;;;;;15.23;65.25;100223.03;6036342;28;20541;-65
2023/07/03 00:26:14;;;;;;;8.93;2.40;;;;;;;15.25;65.61;100211.13;6051753;28;20025;-65
2023/07/03 00:29:10;;;;;;;9.03;2.77;;;;;;;15.28;65.33;100223.28;6043039;28;20273;-65
2023/07/03 00:32:06;;;;;;;9.73;2.70;;;;;;;15.30;64.73;100219.41;6027439;28;20089;-66
2023/07/03 00:35:02;;;;;;;7.75;2.33;;;;;;;15.23;64.53;100215.84;6045086;28;20122;-66
2023/07/03 00:37:58;;;;;;;11.38;2.28;;;;;;;15.27;64.52;100217.09;6049372;28;20080;-65
2023/07/03 00:40:53;;;;;;;5.93;2.40;;;;;;;15.31;63.75;100197.03;6051223;28;20029;-67
2023/07/03 00:43:48;;;;;;;8.33;2.43;;;;;;;15.35;63.66;100209.00;6036722;28;20277;-65
2023/07/03 00:46:46;;;;;;;6.13;2.30;;;;;;;15.25;63.96;100200.44;6051239;28;20037;-66
2023/07/03 00:49:42;;;;;;;9.98;3.22;;;;;;;15.30;63.53;100211.38;6031342;28;20026;-66
2023/07/03 00:52:38;;;;;;;8.00;2.50;;;;;;;15.17;63.61;100194.38;6044128;28;20032;-66
2023/07/03 00:55:36;;;;;;;9.35;2.72;;;;;;;15.08;64.21;100196.38;6065180;28;20029;-66
2023/07/03 00:58:32;;;;;;;7.72;2.60;;;;;;;15.18;64.26;100212.91;6044411;28;20057;-66
2023/07/03 01:01:50;;;;;;;7.88;2.70;;;;;;;15.35;64.49;100211.69;6050145;28;20034;-66
2023/07/03 01:04:57;;;;;;;7.25;2.38;;;;;;;15.43;64.21;100200.03;6042212;28;20058;-66
2023/07/03 01:07:53;;;;;;;6.75;2.22;;;;;;;15.41;64.22;100207.41;6042321;28;20034;-66
2023/07/03 01:10:48;;;;;;;6.53;2.30;;;;;;;15.33;64.28;100188.81;6049123;28;20418;-65
2023/07/03 01:13:45;;;;;;;6.35;2.50;;;;;;;15.22;64.96;100200.81;6030741;28;20053;-66
2023/07/03 01:16:41;;;;;;;7.68;2.88;;;;;;;15.34;64.46;100203.84;6048046;28;20104;-65
2023/07/03 01:19:41;;;;;;;9.70;2.65;;;;;;;15.33;65.22;100208.34;6049395;28;20029;-66
2023/07/03 01:23:06;;;;;;;9.52;2.72;;;;;;;15.35;65.21;100200.16;6035210;28;20559;-66
2023/07/03 01:26:03;;;;;;;10.70;3.33;;;;;;;15.18;64.61;100185.38;6036687;28;20437;-66
2023/07/03 01:29:00;;;;;;;10.52;3.47;;;;;;;15.24;64.71;100193.47;6051143;28;20081;-66
2023/07/03 01:31:56;;;;;;;7.50;2.78;;;;;;;15.24;65.11;100190.78;6050511;28;20370;-66
2023/07/03 01:34:53;;;;;;;9.77;2.90;;;;;;;15.26;64.29;100190.59;6041816;28;20026;-65
2023/07/03 01:37:51;;;;;;;8.82;2.83;;;;;;;15.18;64.59;100180.84;6029723;28;20030;-66
2023/07/03 01:40:46;;;;;;;6.97;2.60;;;;;;;15.14;64.76;100179.56;6065367;28;20499;-65
2023/07/03 01:43:43;;;;;;;7.93;2.63;;;;;;;15.12;65.10;100181.59;6046706;28;20022;-66
2023/07/03 01:46:39;;;;;;;8.70;2.97;;;;;;;15.14;65.03;100176.91;6062038;28;20057;-66
2023/07/03 01:49:34;;;;;;;10.38;2.70;;;;;;;15.21;64.97;100188.50;6049829;28;20029;-65
2023/07/03 01:52:46;;;;;;;7.73;2.73;;;;;;;15.24;64.81;100181.94;6035793;28;20099;-66
2023/07/03 01:55:58;;;;;;;8.57;2.75;;;;;;;15.16;65.08;100177.56;6028009;28;20130;-66
2023/07/03 01:59:08;;;;;;;9.48;2.90;;;;;;;15.14;65.51;100176.91;6043813;28;20457;-66
2023/07/03 02:02:12;;;;;;;9.88;3.10;;;;;;;15.14;66.01;100184.91;6018117;28;20121;-67
2023/07/03 02:05:16;;;;;;;10.38;3.55;;;;;;;14.97;65.28;100150.63;6017102;28;20105;-66
2023/07/03 02:08:11;;;;;;;8.15;2.90;;;;;;;15.06;66.04;100158.31;6030374;28;20053;-66
2023/07/03 02:11:18;;;;;;;9.48;2.53;;;;;;;15.05;66.08;100175.38;6024273;28;20030;-65
2023/07/03 02:14:13;;;;;;;7.47;2.47;;;;;;;14.93;65.96;100158.16;6045310;28;20025;-66
2023/07/03 02:17:09;;;;;;;7.75;3.25;;;;;;;15.03;66.22;100169.38;6048973;28;20034;-66
2023/07/03 02:20:05;;;;;;;8.30;2.67;;;;;;;15.14;66.16;100179.56;6039154;28;20064;-66
2023/07/03 02:23:01;;;;;;;14.68;3.30;;;;;;;15.21;66.29;100185.81;6047508;28;20033;-67
2023/07/03 02:25:56;;;;;;;13.38;3.47;;;;;;;15.20;66.16;100162.78;6034214;28;20050;-67
2023/07/03 02:28:51;;;;;;;11.33;3.07;;;;;;;15.30;65.75;100184.69;6049369;28;20418;-66
2023/07/03 02:31:47;;;;;;;7.90;2.85;;;;;;;15.17;66.38;100155.16;6042984;28;20068;-66
2023/07/03 02:34:42;;;;;;;10.60;2.87;;;;;;;15.18;66.65;100153.31;6048681;28;20112;-66
2023/07/03 02:37:38;;;;;;;9.48;2.97;;;;;;;15.17;66.85;100163.16;6041866;28;20273;-66
2023/07/03 02:40:34;;;;;;;11.25;2.95;;;;;;;15.19;67.09;100161.13;6037498;28;20072;-66
2023/07/03 02:43:30;;;;;;;6.53;3.00;;;;;;;15.17;66.96;100157.81;6048538;28;20025;-66
2023/07/03 02:46:26;;;;;;;12.00;3.67;;;;;;;15.21;67.85;100167.13;6048828;28;20616;-66
2023/07/03 02:49:21;;;;;;;10.20;2.83;;;;;;;15.07;67.89;100151.97;6044610;28;20034;-66
2023/07/03 02:52:16;;;;;;;10.83;3.10;;;;;;;15.08;68.15;100150.13;6048768;28;20033;-66
2023/07/03 02:55:12;;;;;;;11.20;3.10;;;;;;;15.05;68.92;100146.00;6048270;28;20048;-66
2023/07/03 02:58:07;;;;;;;6.55;2.58;;;;;;;15.06;68.68;100166.31;6049070;28;20089;-66
2023/07/03 03:01:03;;;;;;;11.00;3.10;;;;;;;14.88;70.02;100136.56;6042275;28;20061;-66
2023/07/03 03:03:58;;;;;;;10.43;3.10;;;;;;;15.03;70.15;100172.03;6045379;28;20097;-66
2023/07/03 03:06:53;;;;;;;9.33;2.40;;;;;;;14.89;70.84;100148.91;6036817;28;20029;-66
2023/07/03 03:09:49;;;;;;;8.70;2.70;;;;;;;14.94;70.64;100165.19;6048868;28;20261;-66
2023/07/03 03:12:44;;;;;;;17.00;3.67;;;;;;;14.95;70.56;100158.81;6041021;28;20049;-67
2023/07/03 03:15:40;;;;;;;10.73;2.93;;;;;;;14.91;71.32;100154.88;6047815;28;20044;-66
2023/07/03 03:18:35;;;;;;;11.02;3.58;;;;;;;14.88;71.31;100147.22;6044617;28;20129;-67
2023/07/03 03:21:31;;;;;;;9.00;2.83;;;;;;;14.90;72.18;100162.03;6048474;28;20026;-66
2023/07/03 03:24:26;;;;;;;12.57;3.40;;;;;;;14.79;72.22;100143.00;6051430;28;20026;-66
2023/07/03 03:27:22;;;;;;;11.43;3.15;;;;;;;14.78;72.90;100154.72;6053024;28;20040;-67
2023/07/03 03:30:17;;;;;;;13.00;3.73;;;;;;;14.66;73.45;100153.53;6041377;28;20556;-66
2023/07/03 03:33:12;;;;;;;12.40;3.60;;;;;;;14.67;73.26;100153.34;6036175;28;20018;-66
2023/07/03 03:36:08;;;;;;;11.90;3.42;;;;;;;14.68;74.29;100167.50;6052176;28;20022;-67
2023/07/03 03:39:03;;;;;;;11.55;3.47;;;;;;;14.62;74.86;100161.06;6052731;28;20022;-66
2023/07/03 03:41:58;;;;;;;19.60;3.53;;;;;;;14.64;74.60;100163.56;6038896;28;20034;-66
2023/07/03 03:44:54;;;;;;;12.90;3.03;;;;;;;14.71;74.82;100177.81;6040697;28;20029;-67
2023/07/03 03:47:51;;;;;;;11.43;3.00;;;;;;;14.65;74.67;100151.84;6048995;28;20286;-65
2023/07/03 03:50:46;;;;;;;16.25;3.50;;;;;;;14.69;74.62;100158.50;6031457;28;20274;-67
2023/07/03 03:53:41;;;;;;;13.30;2.80;;;;;;;14.69;74.42;100164.66;6039335;28;20473;-66
2023/07/03 03:56:37;;;;;;;10.20;3.10;;;;;;;14.75;74.16;100149.75;6047136;28;20068;-67
2023/07/03 03:59:32;;;;;;;14.23;3.57;;;;;;;14.79;73.66;100159.03;6041022;28;20057;-66
2023/07/03 04:02:27;;;;;;;12.05;3.10;;;;;;;14.91;73.90;100173.56;6037942;28;20741;-66
2023/07/03 04:05:23;;;;;;;11.50;3.10;;;;;;;14.90;73.53;100177.22;6033643;28;20034;-66
2023/07/03 04:08:18;;;;;;;14.67;3.23;;;;;;;14.84;73.40;100164.63;6052242;28;20026;-66
2023/07/03 04:11:14;;;;;;;9.00;2.80;;;;;;;14.86;73.91;100160.78;6048070;28;20023;-66
2023/07/03 04:14:09;;;;;;;14.17;3.60;;;;;;;14.97;74.24;100169.31;6046797;28;20036;-66
2023/07/03 04:17:05;;;;;;;13.38;3.40;;;;;;;14.88;74.54;100155.25;6052006;28;20469;-66
2023/07/03 04:20:00;;;;;;;8.80;2.85;;;;;;;14.96;74.07;100159.63;6051710;28;20030;-66
2023/07/03 04:22:56;;;;;;;12.57;4.95;;;;;;;15.05;74.91;100179.88;6051757;28;20041;-66
2023/07/03 04:25:52;;;;;;;6.03;2.80;;;;;;;14.97;74.65;100159.47;6066274;28;20029;-65
2023/07/03 04:28:47;;;;;;;20.00;3.45;;;;;;;15.02;75.03;100166.91;6039036;28;20058;-66
2023/07/03 04:31:42;;;;;;;12.17;3.20;;;;;;;15.02;74.27;100170.41;6031709;28;20040;-66
2023/07/03 04:34:38;;;;;;;8.10;3.00;;;;;;;15.08;74.75;100185.69;6049683;28;20026;-66
2023/07/03 04:37:34;;;;;;;8.57;3.42;;;;;;;15.11;75.14;100193.28;6046091;28;20030;-66
2023/07/03 04:40:30;;;;;;;10.15;3.25;;;;;;;15.22;74.82;100190.13;6051576;28;20061;-67
2023/07/03 04:43:25;;;;;;;11.60;3.05;;;;;;;15.25;75.20;100192.44;6050771;28;20037;-66
2023/07/03 04:46:26;;;;;;;9.07;3.20;;;;;;;15.19;74.78;100174.47;6051055;28;20084;-67
2023/07/03 04:49:26;;;;;;;12.63;3.40;;;;;;;15.35;73.68;100182.28;6051079;28;20112;-66
2023/07/03 04:52:27;;;;;;;13.40;3.45;;;;;;;15.29;73.83;100175.03;6050895;28;20115;-66
2023/07/03 04:55:22;;;;;;;9.48;3.22;;;;;;;15.37;73.00;100201.63;6050436;28;20377;-67
2023/07/03 04:58:19;;;;;;;10.48;3.30;;;;;;;15.32;73.44;100188.00;6049970;28;20030;-66
2023/07/03 05:01:14;;;;;;;10.60;3.60;;;;;;;15.41;73.04;100204.72;6051055;28;20040;-66
2023/07/03 05:04:10;;;;;;;12.82;3.05;;;;;;;15.44;72.95;100202.50;6045592;28;20394;-66
2023/07/03 05:07:05;;;;;;;8.30;3.20;;;;;;;15.32;73.68;100182.66;6036284;28;20034;-67
2023/07/03 05:10:01;;;;;;;10.20;3.27;;;;;;;15.19;74.34;100173.69;6030973;28;20034;-66
2023/07/03 05:12:56;;;;;;;15.60;2.87;;;;;;;15.29;73.23;100175.03;6042276;28;20534;-65
2023/07/03 05:15:52;;;;;;;13.23;2.92;;;;;;;15.56;72.55;100151.25;6050259;28;20026;-66
2023/07/03 05:18:48;;;;;;;13.07;3.30;;;;;;;15.92;71.11;100173.38;6050378;28;20046;-66
2023/07/03 05:21:43;;;;;;;9.90;2.95;;;;;;;15.97;69.49;100168.28;6050577;28;20436;-66
2023/07/03 05:24:39;;;;;;;11.50;3.27;;;;;;;16.24;69.12;100161.25;6048420;28;20050;-66
2023/07/03 05:27:34;;;;;;;16.58;3.17;;;;;;;16.82;66.49;100176.84;6049685;28;20533;-66
2023/07/03 05:30:30;;;;;;;8.20;2.60;;;;;;;17.02;65.72;100182.28;6031428;28;20060;-66
2023/07/03 05:33:27;;;;;;;10.90;3.08;;;;;;;16.79;66.22;100181.78;6029335;28;20030;-66
2023/07/03 05:36:22;;;;;;;11.23;3.47;;;;;;;16.85;67.44;100165.72;6031644;28;20077;-66
2023/07/03 05:39:17;;;;;;;9.50;2.90;;;;;;;17.15;65.31;100169.75;6034481;28;20046;-66
2023/07/03 05:42:14;;;;;;;10.53;3.80;;;;;;;17.20;64.65;100179.88;6032226;28;20428;-66
2023/07/03 05:45:09;;;;;;;8.02;2.65;;;;;;;17.55;62.54;100178.75;6036070;28;20064;-66
2023/07/03 05:48:05;;;;;;;9.18;2.22;;;;;;;17.65;62.50;100173.81;6042525;28;20465;-66
2023/07/03 05:51:00;;;;;;;12.70;3.58;;;;;;;17.38;62.99;100185.47;6034397;28;20410;-67
2023/07/03 05:53:55;;;;;;;12.75;3.28;;;;;;;17.34;63.17;100186.09;6025384;28;20026;-66
2023/07/03 05:57:04;;;;;;;16.73;3.38;;;;;;;16.92;64.12;100171.94;6032412;28;20058;-67
2023/07/03 05:59:59;;;;;;;9.20;2.25;;;;;;;16.70;65.37;100185.63;6034762;28;20134;-66
2023/07/03 06:02:55;;;;;;;16.13;2.90;;;;;;;16.86;65.67;100193.34;6036297;28;20532;-65
2023/07/03 06:05:51;;;;;;;14.65;3.17;;;;;;;16.87;64.72;100189.66;6024952;28;20057;-66
2023/07/03 06:08:46;;;;;;;12.00;2.70;;;;;;;16.79;65.92;100204.03;6031836;28;20109;-66
2023/07/03 06:11:41;;;;;;;11.20;2.97;;;;;;;16.82;65.88;100202.81;6030348;28;20034;-66
2023/07/03 06:14:37;;;;;;;15.33;2.70;;;;;;;16.93;65.25;100218.31;6024430;28;20422;-65
2023/07/03 06:17:32;;;;;;;11.90;2.70;;;;;;;17.04;64.05;100207.84;6032896;28;20113;-66
2023/07/03 06:20:27;;;;;;;10.37;2.53;;;;;;;16.80;65.84;100215.56;6026818;28;20029;-66
2023/07/03 06:23:23;;;;;;;9.95;2.45;;;;;;;16.56;67.11;100215.03;6023557;28;20045;-66
2023/07/03 06:26:18;;;;;;;17.93;2.80;;;;;;;16.67;67.08;100216.31;6025247;28;20046;-66
2023/07/03 06:29:14;;;;;;;10.37;2.70;;;;;;;16.65;65.27;100219.22;6022413;28;20470;-65
2023/07/03 06:32:10;;;;;;;12.57;2.53;;;;;;;17.22;63.82;100226.88;6025213;28;20041;-66
2023/07/03 06:35:06;;;;;;;12.05;2.83;;;;;;;17.60;62.54;100232.59;6031578;28;20031;-65
2023/07/03 06:38:03;;;;;;;12.13;2.75;;;;;;;17.04;64.07;100218.56;6021106;28;20033;-66
2023/07/03 06:40:58;;;;;;;12.65;3.10;;;;;;;16.73;64.89;100228.91;6029233;28;20034;-66
2023/07/03 06:43:55;;;;;;;8.95;3.13;;;;;;;16.67;65.44;100254.63;6017610;28;20026;-66
2023/07/03 06:46:50;;;;;;;15.35;3.28;;;;;;;16.81;65.84;100254.72;6026601;28;20474;-66
2023/07/03 06:49:46;;;;;;;10.70;3.00;;;;;;;16.82;66.11;100245.66;6029649;28;20096;-66
2023/07/03 06:52:42;;;;;;;13.07;2.58;;;;;;;16.75;65.93;100242.94;6018840;28;20030;-66
2023/07/03 06:55:37;;;;;;;10.25;2.38;;;;;;;16.94;66.40;100255.59;6028173;28;20031;-66
2023/07/03 06:58:33;;;;;;;13.07;2.57;;;;;;;17.02;65.43;100242.03;6017367;28;20034;-65
2023/07/03 07:01:29;;;;;;;14.88;2.80;;;;;;;16.90;66.72;100273.13;6028942;28;20027;-66
2023/07/03 07:04:27;;;;;;;13.82;2.78;;;;;;;16.87;66.99;100270.00;6025621;28;20030;-67
2023/07/03 07:07:22;;;;;;;12.98;2.88;;;;;;;17.11;66.13;100261.47;6023564;28;20037;-66
2023/07/03 07:10:17;;;;;;;12.67;3.03;;;;;;;16.86;65.99;100254.94;6037528;28;20532;-65
2023/07/03 07:13:13;;;;;;;11.10;2.73;;;;;;;16.80;66.35;100264.59;6031668;28;21587;-65
2023/07/03 07:16:12;;;;;;;13.30;2.88;;;;;;;16.80;66.87;100247.69;6033614;28;20112;-66
2023/07/03 07:19:09;;;;;;;14.52;3.35;;;;;;;16.95;66.75;100272.50;6022845;28;20034;-67
2023/07/03 07:22:04;;;;;;;10.98;2.92;;;;;;;16.86;67.55;100244.22;6032702;28;20401;-66
2023/07/03 07:24:59;;;;;;;7.70;3.00;;;;;;;17.05;65.91;100254.22;6032307;28;20045;-66
2023/07/03 07:27:56;;;;;;;11.48;2.78;;;;;;;17.11;66.69;100256.09;6024258;28;20035;-67
2023/07/03 07:30:51;;;;;;;9.13;2.40;;;;;;;17.43;65.04;100244.69;6029027;28;20038;-66
2023/07/03 07:33:47;;;;;;;11.57;2.97;;;;;;;17.16;64.46;100249.13;6022248;28;20041;-66
2023/07/03 07:36:42;;;;;;;12.07;2.90;;;;;;;17.20;65.37;100271.00;6036342;28;20022;-66
2023/07/03 07:39:40;;;;;;;15.73;3.50;;;;;;;17.39;65.39;100254.16;6025695;28;20034;-64
2023/07/03 07:42:36;;;;;;;8.85;2.50;;;;;;;17.62;63.92;100253.81;6029274;28;20067;-64
2023/07/03 07:45:32;;;;;;;11.32;2.90;;;;;;;17.61;64.17;100261.03;6023505;28;20409;-65
2023/07/03 07:48:27;;;;;;;14.97;3.10;;;;;;;17.44;64.46;100257.06;6032597;28;20037;-64
2023/07/03 07:51:24;;;;;;;10.40;2.50;;;;;;;17.28;64.30;100254.75;6031888;28;20284;-65
2023/07/03 07:54:19;;;;;;;14.95;2.63;;;;;;;17.61;65.08;100269.09;6031250;28;20038;-66
2023/07/03 07:57:16;;;;;;;15.32;3.08;;;;;;;17.77;65.86;100271.38;6025452;28;20081;-66
2023/07/03 08:00:12;;;;;;;10.32;2.90;;;;;;;17.64;64.21;100247.22;6028626;28;20451;-65
2023/07/03 08:03:07;;;;;;;19.33;3.33;;;;;;;17.38;64.79;100255.19;6031590;28;20065;-65
2023/07/03 08:06:04;;;;;;;10.67;2.53;;;;;;;17.15;65.52;100270.75;6031564;28;20370;-66
2023/07/03 08:08:59;;;;;;;15.85;2.80;;;;;;;17.08;66.88;100284.13;6021807;28;20037;-66
2023/07/03 08:11:54;;;;;;;13.10;2.80;;;;;;;16.98;67.36;100281.00;6025090;28;20042;-65
2023/07/03 08:14:50;;;;;;;14.13;3.43;;;;;;;16.63;67.12;100263.28;6033789;28;20415;-65
2023/07/03 08:17:45;;;;;;;16.10;2.67;;;;;;;16.50;69.35;100269.31;6031789;28;20069;-65
2023/07/03 08:20:40;;;;;;;18.57;3.03;;;;;;;16.45;69.85;100271.75;6024290;28;20732;-65
2023/07/03 08:23:36;;;;;;;11.13;2.70;;;;;;;16.50;70.01;100268.47;6033226;28;20025;-65
2023/07/03 08:26:31;;;;;;;16.47;3.10;;;;;;;16.67;69.30;100281.41;6028468;28;20061;-66
2023/07/03 08:29:27;;;;;;;13.27;3.42;;;;;;;16.93;68.77;100266.53;6024791;28;20065;-65
2023/07/03 08:32:23;;;;;;;11.03;2.90;;;;;;;17.28;67.81;100270.81;6021551;28;20470;-65
2023/07/03 08:35:18;;;;;;;12.35;2.90;;;;;;;17.57;66.88;100289.31;6025431;28;20068;-66
2023/07/03 08:38:13;;;;;;;12.50;3.33;;;;;;;17.58;66.73;100269.50;6023813;28;20038;-66
2023/07/03 08:41:11;;;;;;;19.73;2.90;;;;;;;17.56;65.55;100271.56;6028185;28;20490;-65
2023/07/03 08:44:07;;;;;;;10.80;3.22;;;;;;;17.71;65.34;100284.81;6020854;28;20043;-66
2023/07/03 08:47:06;;;;;;;18.80;3.88;;;;;;;17.64;65.64;100289.31;6023690;28;20069;-66
2023/07/03 08:50:03;;;;;;;13.27;3.38;;;;;;;17.60;66.34;100304.16;6042215;28;20421;-66
2023/07/03 08:53:03;;;;;;;13.75;3.58;;;;;;;17.30;67.22;100294.72;6041828;28;20029;-66
2023/07/03 08:56:13;;;;;;;15.65;3.38;;;;;;;17.17;68.37;100309.75;6025765;28;20022;-65
2023/07/03 08:59:09;;;;;;;15.80;3.55;;;;;;;17.06;67.84;100288.88;6014914;28;20034;-65
2023/07/03 09:02:19;;;;;;;15.53;3.20;;;;;;;17.23;69.64;100283.97;6026225;28;20057;-65
2023/07/03 09:05:21;;;;;;;11.75;3.75;;;;;;;17.55;68.06;100310.13;6011928;28;20050;-65
2023/07/03 09:08:32;;;;;;;16.55;4.43;;;;;;;18.22;68.59;100306.56;6014317;28;20042;-66
2023/07/03 09:11:30;;;;;;;20.55;3.90;;;;;;;18.32;64.85;100296.22;6027054;28;20030;-65
2023/07/03 09:14:27;;;;;;;15.52;3.35;;;;;;;18.06;66.27;100289.00;6040247;28;20034;-65
2023/07/03 09:17:24;;;;;;;9.05;3.10;;;;;;;18.28;66.66;100297.69;6028910;28;20040;-66
2023/07/03 09:20:19;;;;;;;12.15;3.33;;;;;;;18.54;65.68;100303.06;6025881;28;20042;-66
2023/07/03 09:23:27;;;;;;;12.32;3.67;;;;;;;18.50;64.14;100314.44;6023785;28;20077;-66
2023/07/03 09:26:53;;;;;;;11.27;3.72;;;;;;;18.53;64.29;100312.19;6045530;28;20385;-65
2023/07/03 09:29:49;;;;;;;17.63;3.72;;;;;;;18.74;63.52;100317.31;6030283;28;20113;-65
2023/07/03 09:32:44;;;;;;;14.80;3.50;;;;;;;19.02;62.43;100304.44;6023808;28;20038;-65
2023/07/03 09:35:40;;;;;;;11.93;3.33;;;;;;;19.31;63.39;100311.19;6032670;28;20433;-65
2023/07/03 09:38:36;;;;;;;9.63;3.13;;;;;;;19.98;61.58;100316.06;6023594;28;20037;-65
2023/07/03 09:41:33;;;;;;;12.20;3.30;;;;;;;20.16;58.00;100321.50;6031742;28;20025;-64
2023/07/03 09:44:29;;;;;;;10.82;3.40;;;;;;;19.98;57.81;100320.59;6033702;28;20033;-64
2023/07/03 09:47:26;;;;;;;10.13;2.90;;;;;;;19.23;58.51;100307.91;6022298;28;20033;-65
2023/07/03 09:50:27;;;;;;;9.07;2.85;;;;;;;19.64;56.74;100318.31;6045749;28;20042;-65
2023/07/03 09:53:26;;;;;;;13.70;3.25;;;;;;;19.92;56.33;100299.97;6025747;28;20075;-64
2023/07/03 09:56:24;;;;;;;11.45;3.20;;;;;;;20.05;57.39;100311.47;6027985;28;20029;-66
2023/07/03 09:59:20;;;;;;;10.75;3.00;;;;;;;19.97;57.61;100303.66;6027085;28;20061;-65
2023/07/03 10:02:17;;;;;;;15.27;3.42;;;;;;;19.77;56.65;100304.78;6030572;28;20026;-65
2023/07/03 10:05:16;;;;;;;7.68;3.33;;;;;;;20.18;56.48;100307.84;6022381;28;20399;-66
2023/07/03 10:08:12;;;;;;;14.77;3.03;;;;;;;20.69;55.24;100294.19;6022338;28;20030;-66
2023/07/03 10:11:08;;;;;;;17.90;3.13;;;;;;;21.11;54.50;100308.72;6027810;28;20034;-65
2023/07/03 10:14:07;;;;;;;13.73;3.65;;;;;;;20.74;52.53;100299.72;6031787;28;20625;-66
2023/07/03 10:17:04;;;;;;;10.20;2.80;;;;;;;20.33;53.74;100294.91;6045510;28;20473;-65
2023/07/03 10:20:03;;;;;;;10.13;3.20;;;;;;;20.69;52.02;100296.88;6019520;28;20035;-65
2023/07/03 10:23:02;;;;;;;9.32;3.05;;;;;;;20.73;52.04;100306.19;6049395;28;20026;-65
2023/07/03 10:26:05;;;;;;;9.77;3.13;;;;;;;20.25;53.54;100308.66;6027183;28;20157;-65
2023/07/03 10:29:10;;;;;;;10.15;2.70;;;;;;;19.90;54.80;100319.00;6043896;28;20039;-65
2023/07/03 10:32:13;;;;;;;11.55;3.13;;;;;;;19.32;54.81;100307.44;6031088;28;20142;-65
2023/07/03 10:35:29;;;;;;;12.38;3.17;;;;;;;19.08;56.60;100321.59;6033871;28;20030;-66
2023/07/03 10:38:38;;;;;;;8.35;2.90;;;;;;;18.64;58.80;100322.31;6022794;28;20104;-65
2023/07/03 10:41:38;;;;;;;15.00;3.08;;;;;;;18.32;59.57;100325.75;6038018;28;20524;-66
2023/07/03 10:44:36;;;;;;;11.77;3.03;;;;;;;18.02;59.84;100333.34;6031293;28;20061;-65
2023/07/03 10:47:39;;;;;;;11.55;2.88;;;;;;;17.65;62.96;100353.50;6045886;28;20144;-67
2023/07/03 10:50:40;;;;;;;9.07;2.95;;;;;;;17.23;65.78;100362.53;6030573;28;20034;-65
2023/07/03 10:53:47;;;;;;;12.13;3.35;;;;;;;16.88;66.57;100342.09;6035595;28;20034;-66
2023/07/03 10:56:48;;;;;;;9.98;2.60;;;;;;;16.90;65.35;100350.78;6039969;28;20045;-66
2023/07/03 10:59:49;;;;;;;11.35;2.70;;;;;;;16.95;65.30;100353.72;6049664;28;20058;-66
2023/07/03 11:03:06;;;;;;;9.88;2.63;;;;;;;17.19;65.88;100382.72;6056916;28;20026;-66
2023/07/03 11:06:05;;;;;;;10.82;2.63;;;;;;;17.00;65.74;100367.34;6030132;28;20033;-67
2023/07/03 11:09:08;;;;;;;14.57;3.53;;;;;;;17.09;65.59;100376.88;6033141;28;20062;-66
2023/07/03 11:12:12;;;;;;;8.82;2.22;;;;;;;17.14;65.35;100353.00;6034949;28;20493;-67
2023/07/03 11:15:35;;;;;;;10.10;2.83;;;;;;;17.60;63.97;100347.06;6035635;28;20033;-66
2023/07/03 11:18:48;;;;;;;14.57;3.17;;;;;;;18.10;64.19;100365.38;6029651;28;20042;-65
2023/07/03 11:21:58;;;;;;;13.23;2.83;;;;;;;18.67;60.84;100346.03;6032028;28;20045;-65
2023/07/03 11:25:10;;;;;;;9.38;2.38;;;;;;;19.20;59.01;100319.09;6038926;28;20026;-66
2023/07/03 11:28:17;;;;;;;9.02;2.70;;;;;;;19.33;57.87;100319.88;6023108;28;20034;-66
2023/07/03 11:31:14;;;;;;;12.45;3.35;;;;;;;20.31;56.84;100323.94;6033554;28;20026;-67
2023/07/03 11:34:12;;;;;;;10.60;3.25;;;;;;;19.98;54.83;100334.91;6026223;28;20038;-67
2023/07/03 11:37:28;;;;;;;8.02;2.45;;;;;;;20.19;54.29;100337.25;6043810;28;20473;-67
2023/07/03 11:40:58;;;;;;;12.70;2.70;;;;;;;20.46;53.47;100343.31;6024798;28;20034;-65
2023/07/03 11:43:53;;;;;;;8.25;2.88;;;;;;;20.47;52.48;100339.56;6023862;28;20047;-66
2023/07/03 11:46:52;;;;;;;11.13;2.40;;;;;;;20.14;53.11;100333.53;6027211;28;20153;-66
2023/07/03 11:49:58;;;;;;;7.75;2.72;;;;;;;20.19;52.24;100337.25;6025448;28;20121;-67
2023/07/03 11:52:53;;;;;;;15.63;3.35;;;;;;;20.31;52.18;100347.34;6029951;28;20031;-65
2023/07/03 11:55:48;;;;;;;7.53;2.25;;;;;;;20.47;53.74;100354.88;6027769;28;20105;-65
2023/07/03 11:58:44;;;;;;;6.87;2.17;;;;;;;20.37;52.34;100349.19;6027696;28;20042;-67
2023/07/03 12:01:39;;;;;;;12.18;2.63;;;;;;;20.20;51.45;100328.13;6019176;28;20118;-66
2023/07/03 12:04:47;;;;;;;11.40;2.57;;;;;;;20.20;53.98;100355.06;6018261;28;20096;-66
2023/07/03 12:07:46;;;;;;;10.50;2.95;;;;;;;20.33;52.10;100332.63;6029150;28;20049;-66
2023/07/03 12:10:46;;;;;;;11.10;2.20;;;;;;;20.44;52.16;100344.56;6027836;28;20530;-67
2023/07/03 12:13:42;;;;;;;5.95;2.45;;;;;;;20.78;51.25;100346.78;6028263;28;20030;-66
2023/07/03 12:16:45;;;;;;;14.60;2.83;;;;;;;20.37;50.31;100338.41;6029304;28;20096;-65
2023/07/03 12:19:40;;;;;;;9.27;3.33;;;;;;;19.63;52.43;100314.81;6030985;28;20038;-66
2023/07/03 12:22:42;;;;;;;10.70;2.97;;;;;;;19.13;54.11;100334.41;6016268;28;20073;-65
2023/07/03 12:25:38;;;;;;;9.25;2.45;;;;;;;19.05;54.95;100356.97;6025337;28;20030;-66
2023/07/03 12:28:33;;;;;;;9.77;2.23;;;;;;;18.73;54.71;100360.50;6024042;28;20038;-65
2023/07/03 12:31:29;;;;;;;11.88;2.67;;;;;;;18.60;55.92;100353.28;6027257;28;20114;-65
2023/07/03 12:34:26;;;;;;;10.85;2.85;;;;;;;18.44;56.71;100353.66;6023398;28;20026;-66
2023/07/03 12:37:24;;;;;;;10.32;2.58;;;;;;;18.38;57.32;100362.53;6021493;28;20037;-66
2023/07/03 12:40:20;;;;;;;9.00;2.72;;;;;;;18.44;56.36;100367.91;6025197;28;20097;-65
2023/07/03 12:43:16;;;;;;;13.30;2.30;;;;;;;18.33;55.83;100355.09;6022982;28;20030;-66
2023/07/03 12:46:24;;;;;;;10.73;2.58;;;;;;;18.68;55.35;100347.69;6021827;28;20503;-66
2023/07/03 12:49:20;;;;;;;11.32;2.35;;;;;;;19.77;53.64;100351.38;6027768;28;20406;-67
2023/07/03 12:52:15;;;;;;;10.70;2.45;;;;;;;19.92;51.10;100346.53;6026578;28;20034;-66
2023/07/03 12:55:11;;;;;;;9.57;2.72;;;;;;;19.52;52.96;100356.66;6020885;28;20166;-66
2023/07/03 12:58:07;;;;;;;11.13;2.30;;;;;;;19.20;52.30;100356.72;6024264;28;20466;-66
2023/07/03 13:01:08;;;;;;;9.77;2.63;;;;;;;19.51;52.56;100346.13;6024127;28;20034;-65
2023/07/03 13:04:04;;;;;;;7.53;2.35;;;;;;;20.38;51.51;100357.06;6024822;28;20117;-66
2023/07/03 13:07:00;;;;;;;5.78;2.20;;;;;;;20.97;48.57;100345.75;6026196;28;20421;-66
2023/07/03 13:09:57;;;;;;;6.85;2.60;;;;;;;21.37;48.63;100332.69;6037602;28;20444;-66
2023/07/03 13:13:05;;;;;;;9.57;2.55;;;;;;;20.93;47.92;100341.00;6030476;28;20031;-66
2023/07/03 13:16:14;;;;;;;11.98;2.60;;;;;;;20.57;48.29;100350.66;6042614;28;20068;-66
2023/07/03 13:19:30;;;;;;;9.45;2.50;;;;;;;20.35;49.43;100362.03;6117798;28;20379;-65
2023/07/03 13:22:32;;;;;;;7.65;1.98;;;;;;;20.81;49.05;100372.44;6103930;28;20476;-65
2023/07/03 13:25:35;;;;;;;9.00;2.47;;;;;;;20.81;47.83;100378.69;6093131;28;20025;-66
2023/07/03 13:28:34;;;;;;;10.32;2.38;;;;;;;20.59;49.09;100374.72;6092717;28;20036;-66
2023/07/03 13:31:31;;;;;;;8.40;2.60;;;;;;;21.79;49.53;100371.41;6098126;28;20086;-66
2023/07/03 13:34:28;;;;;;;14.05;2.58;;;;;;;22.08;45.80;100370.63;6092804;28;20091;-65
2023/07/03 13:37:26;;;;;;;6.10;2.00;;;;;;;22.08;44.97;100348.19;6102159;28;20032;-66
2023/07/03 13:40:21;;;;;;;6.75;2.67;;;;;;;21.92;46.23;100368.56;6096737;28;20426;-66
2023/07/03 13:43:28;;;;;;;6.87;2.20;;;;;;;21.75;46.01;100356.72;6096810;28;20024;-66